createdAt,value
2022-08-17T00:00:12.799Z,50.93
2022-08-17T00:02:59.031Z,51.32
2022-08-17T00:05:28.524Z,51.42
2022-08-17T00:07:56.362Z,51.33
2022-08-17T00:10:25.823Z,51.47
2022-08-17T00:12:54.434Z,51.52
2022-08-17T00:15:23.474Z,51.71
2022-08-17T00:17:52.781Z,51.87
2022-08-17T00:20:23.390Z,51.48
2022-08-17T00:23:07.119Z,51.61
2022-08-17T00:25:36.341Z,51.80
2022-08-17T00:28:04.686Z,51.94
2022-08-17T00:30:51.139Z,51.88
2022-08-17T00:33:22.169Z,51.96
2022-08-17T00:35:51.159Z,51.84
2022-08-17T00:38:19.234Z,52.02
2022-08-17T00:40:51.810Z,52.27
2022-08-17T00:43:29.274Z,52.52
2022-08-17T00:45:57.232Z,52.16
2022-08-17T00:48:29.134Z,52.65
2022-08-17T00:51:02.858Z,52.67
2022-08-17T00:53:33.501Z,52.89
2022-08-17T00:56:05.908Z,53.06
2022-08-17T00:58:36.601Z,53.36
2022-08-17T01:01:06.612Z,53.32
2022-08-17T01:03:35.671Z,53.48
2022-08-17T01:06:11.227Z,53.70
2022-08-17T01:08:41.076Z,53.91
2022-08-17T01:11:10.196Z,53.90
2022-08-17T01:13:41.992Z,53.96
2022-08-17T01:16:16.909Z,54.28
2022-08-17T01:18:46.262Z,54.82
2022-08-17T01:21:21.216Z,54.77
2022-08-17T01:23:50.435Z,55.04
2022-08-17T01:26:19.338Z,55.12
2022-08-17T01:28:54.154Z,55.29
2022-08-17T01:31:25.091Z,55.40
2022-08-17T01:33:53.307Z,55.45
2022-08-17T01:36:21.217Z,55.62
2022-08-17T01:38:50.350Z,55.53
2022-08-17T01:41:18.456Z,55.74
2022-08-17T01:43:49.849Z,56.07
2022-08-17T01:46:22.375Z,55.81
2022-08-17T01:48:51.370Z,56.07
2022-08-17T01:51:19.862Z,56.20
2022-08-17T01:53:51.625Z,56.10
2022-08-17T01:56:22.567Z,56.18
2022-08-17T01:58:50.419Z,56.58
2022-08-17T02:01:20.439Z,56.72
2022-08-17T02:03:56.190Z,56.66
2022-08-17T02:06:29.978Z,56.97
2022-08-17T02:09:03.005Z,57.30
2022-08-17T02:11:33.098Z,57.56
2022-08-17T02:14:03.106Z,57.68
2022-08-17T02:16:37.952Z,57.62
2022-08-17T02:19:09.237Z,57.80
2022-08-17T02:21:37.927Z,58.12
2022-08-17T02:26:35.715Z,58.09
2022-08-17T02:29:04.076Z,58.21
2022-08-17T02:31:32.319Z,58.28
2022-08-17T02:34:04.516Z,58.33
2022-08-17T02:36:33.894Z,58.55
2022-08-17T02:39:02.161Z,58.48
2022-08-17T02:41:31.772Z,58.38
2022-08-17T02:43:59.640Z,58.71
2022-08-17T02:46:27.870Z,58.64
2022-08-17T02:48:55.682Z,58.55
2022-08-17T02:51:23.441Z,58.94
2022-08-17T02:53:51.656Z,58.97
2022-08-17T02:56:19.495Z,59.10
2022-08-17T02:58:48.589Z,59.22
2022-08-17T03:01:16.438Z,59.09
2022-08-17T03:03:44.722Z,59.19
2022-08-17T03:06:12.525Z,59.02
2022-08-17T03:08:40.610Z,59.12
2022-08-17T03:11:08.332Z,59.15
2022-08-17T03:13:36.330Z,59.33
2022-08-17T03:16:05.827Z,59.40
2022-08-17T03:18:33.516Z,59.69
2022-08-17T03:21:04.290Z,59.68
2022-08-17T03:23:33.769Z,59.70
2022-08-17T03:26:02.150Z,59.85
2022-08-17T03:28:30.103Z,59.68
2022-08-17T03:30:57.832Z,59.76
2022-08-17T03:33:26.927Z,59.56
2022-08-17T03:35:54.671Z,59.82
2022-08-17T03:38:23.223Z,59.94
2022-08-17T03:40:56.237Z,59.86
2022-08-17T03:43:28.833Z,59.85
2022-08-17T03:46:28.896Z,60.14
2022-08-17T03:49:21.824Z,60.05
2022-08-17T03:52:07.083Z,60.08
2022-08-17T03:54:52.792Z,60.13
2022-08-17T03:57:20.574Z,60.07
2022-08-17T03:59:48.527Z,60.18
2022-08-17T04:02:19.849Z,60.03
2022-08-17T04:04:50.910Z,60.32
2022-08-17T04:07:19.458Z,60.31
2022-08-17T04:09:47.249Z,60.07
2022-08-17T04:12:16.591Z,59.99
2022-08-17T04:14:52.137Z,60.11
2022-08-17T04:17:22.943Z,60.09
2022-08-17T04:19:52.064Z,60.11
2022-08-17T04:22:33.121Z,60.01
2022-08-17T04:25:05.300Z,59.80
2022-08-17T04:27:33.020Z,59.92
2022-08-17T04:30:00.752Z,59.84
2022-08-17T04:33:03.419Z,59.83
2022-08-17T04:35:21.231Z,59.98
2022-08-17T04:37:48.969Z,59.77
2022-08-17T04:40:34.815Z,60.11
2022-08-17T04:43:04.460Z,60.02
2022-08-17T04:45:32.727Z,59.98
2022-08-17T04:48:01.138Z,59.92
2022-08-17T04:50:30.333Z,59.99
2022-08-17T04:52:58.489Z,59.81
2022-08-17T04:55:26.370Z,60.40
2022-08-17T04:57:54.275Z,60.01
2022-08-17T05:00:22.337Z,59.77
2022-08-17T05:02:52.467Z,59.69
2022-08-17T05:05:21.696Z,59.35
2022-08-17T05:07:52.234Z,59.36
2022-08-17T05:10:20.076Z,59.42
2022-08-17T05:12:48.864Z,59.21
2022-08-17T05:15:16.846Z,59.18
2022-08-17T05:17:48.044Z,59.04
2022-08-17T05:20:15.851Z,59.03
2022-08-17T05:22:52.920Z,59.00
2022-08-17T05:25:25.604Z,58.99
2022-08-17T05:27:54.169Z,58.71
2022-08-17T05:30:22.673Z,58.88
2022-08-17T05:32:55.588Z,58.66
2022-08-17T05:35:24.043Z,58.95
2022-08-17T05:37:53.636Z,59.00
2022-08-17T05:40:25.887Z,58.75
2022-08-17T05:43:04.276Z,58.55
2022-08-17T05:45:55.957Z,58.53
2022-08-17T05:48:22.943Z,58.40
2022-08-17T05:51:21.442Z,58.42
2022-08-17T05:54:00.011Z,57.89
2022-08-17T05:56:44.864Z,58.13
2022-08-17T05:59:18.534Z,57.88
2022-08-17T06:02:00.006Z,57.61
2022-08-17T06:04:38.888Z,57.64
2022-08-17T06:07:16.050Z,57.27
2022-08-17T06:09:50.557Z,57.37
2022-08-17T06:12:41.108Z,57.40
2022-08-17T06:15:24.680Z,57.22
2022-08-17T06:17:55.666Z,57.61
2022-08-17T06:20:26.287Z,57.49
2022-08-17T06:23:03.730Z,57.08
2022-08-17T06:25:35.999Z,56.52
2022-08-17T06:28:06.424Z,55.83
2022-08-17T06:30:59.446Z,56.47
2022-08-17T06:33:34.163Z,55.89
2022-08-17T06:36:18.280Z,55.64
2022-08-17T06:39:00.206Z,55.20
2022-08-17T06:41:38.801Z,55.56
2022-08-17T06:44:49.798Z,55.44
2022-08-17T06:47:09.089Z,55.06
2022-08-17T06:49:44.314Z,54.71
2022-08-17T06:52:45.901Z,54.77
2022-08-17T06:55:18.991Z,53.11
2022-08-17T06:57:52.655Z,52.99
2022-08-17T07:00:23.863Z,52.59
2022-08-17T07:02:57.040Z,52.14
2022-08-17T07:05:27.958Z,51.59
2022-08-17T07:08:05.244Z,51.24
2022-08-17T07:10:40.098Z,51.22
2022-08-17T07:13:24.806Z,50.63
2022-08-17T07:15:58.558Z,50.98
2022-08-17T07:18:28.711Z,50.58
2022-08-17T07:21:04.023Z,50.49
2022-08-17T07:23:40.057Z,50.42
2022-08-17T07:26:10.036Z,50.44
2022-08-17T07:28:39.835Z,50.30
2022-08-17T07:31:09.279Z,50.20
2022-08-17T07:33:39.323Z,50.20
2022-08-17T07:36:29.805Z,50.36
2022-08-17T07:38:58.915Z,50.37
2022-08-17T07:41:58.010Z,50.30
2022-08-17T07:44:17.652Z,50.04
2022-08-17T07:47:08.622Z,50.20
2022-08-17T07:49:38.789Z,50.17
2022-08-17T07:52:48.098Z,50.04
2022-08-17T07:54:57.615Z,50.28
2022-08-17T07:57:33.070Z,50.43
2022-08-17T08:00:19.751Z,50.18
2022-08-17T08:03:05.947Z,50.13
2022-08-17T08:05:50.517Z,50.25
2022-08-17T08:08:28.191Z,51.09
2022-08-17T08:11:02.555Z,50.60
2022-08-17T08:13:32.231Z,50.98
2022-08-17T08:16:29.116Z,50.99
2022-08-17T08:18:59.297Z,50.93
2022-08-17T08:21:34.429Z,50.90
2022-08-17T08:24:14.494Z,50.75
2022-08-17T08:26:48.038Z,50.89
2022-08-17T08:29:29.341Z,50.75
2022-08-17T08:32:07.579Z,50.55
2022-08-17T08:35:01.827Z,50.72
2022-08-17T08:37:42.959Z,51.04
2022-08-17T08:40:28.119Z,50.57
2022-08-17T08:43:05.177Z,51.06
2022-08-17T08:45:44.587Z,51.38
2022-08-17T08:48:52.863Z,51.25
2022-08-17T08:51:27.691Z,50.73
2022-08-17T08:54:03.323Z,50.95
2022-08-17T08:56:38.199Z,51.01
2022-08-17T08:59:18.731Z,50.68
2022-08-17T09:01:57.086Z,50.12
2022-08-17T09:05:12.760Z,49.73
2022-08-17T09:07:41.955Z,49.35
2022-08-17T09:10:18.160Z,49.45
2022-08-17T09:12:52.641Z,49.30
2022-08-17T09:15:27.522Z,49.22
2022-08-17T09:19:03.191Z,49.23
2022-08-17T09:20:57.411Z,49.30
2022-08-17T09:23:33.539Z,49.29
2022-08-17T09:26:07.899Z,49.63
2022-08-17T09:28:39.196Z,49.99
2022-08-17T09:31:10.771Z,50.13
2022-08-17T09:33:44.321Z,50.43
2022-08-17T09:36:18.747Z,50.44
2022-08-17T09:38:55.032Z,49.73
2022-08-17T09:41:28.223Z,49.74
2022-08-17T09:44:02.165Z,49.29
2022-08-17T09:46:34.203Z,50.16
2022-08-17T09:49:14.518Z,49.49
2022-08-17T09:51:49.391Z,48.73
2022-08-17T09:54:38.612Z,48.99
2022-08-17T09:57:31.392Z,48.89
2022-08-17T10:00:16.932Z,49.04
2022-08-17T10:03:11.782Z,48.60
2022-08-17T10:05:46.644Z,48.49
2022-08-17T10:08:27.709Z,48.36
2022-08-17T10:11:06.791Z,48.45
2022-08-17T10:13:52.721Z,49.41
2022-08-17T10:16:27.034Z,49.13
2022-08-17T10:19:06.113Z,49.17
2022-08-17T10:22:01.421Z,50.08
2022-08-17T10:25:23.154Z,49.94
2022-08-17T10:27:56.301Z,49.87
2022-08-17T10:30:27.744Z,50.32
2022-08-17T10:32:59.257Z,50.20
2022-08-17T10:35:35.909Z,50.17
2022-08-17T10:38:31.559Z,50.70
2022-08-17T10:41:07.114Z,50.81
2022-08-17T10:44:02.182Z,51.19
2022-08-17T10:46:54.204Z,51.82
2022-08-17T10:49:33.888Z,51.98
2022-08-17T10:52:03.621Z,52.54
2022-08-17T10:54:58.072Z,52.93
2022-08-17T10:57:42.681Z,52.78
2022-08-17T11:00:36.311Z,53.32
2022-08-17T11:03:18.778Z,53.59
2022-08-17T11:05:58.909Z,54.30
2022-08-17T11:09:11.828Z,54.37
2022-08-17T11:12:14.179Z,55.12
2022-08-17T11:15:00.359Z,55.55
2022-08-17T11:18:04.573Z,55.65
2022-08-17T11:20:54.828Z,55.98
2022-08-17T11:23:48.363Z,56.68
2022-08-17T11:26:26.202Z,56.90
2022-08-17T11:28:58.904Z,57.40
2022-08-17T11:31:39.322Z,57.40
2022-08-17T11:34:15.285Z,58.11
2022-08-17T11:37:21.688Z,59.08
2022-08-17T11:40:18.301Z,59.62
2022-08-17T11:43:05.791Z,59.61
2022-08-17T11:45:58.129Z,59.67
2022-08-17T11:48:54.197Z,60.68
2022-08-17T11:51:35.928Z,60.92
2022-08-17T11:54:31.776Z,60.99
2022-08-17T11:56:58.970Z,61.42
2022-08-17T12:00:10.185Z,61.13
2022-08-17T12:02:48.271Z,61.27
2022-08-17T12:05:35.199Z,61.54
2022-08-17T12:08:15.940Z,61.23
2022-08-17T12:11:01.495Z,61.68
2022-08-17T12:13:39.567Z,61.93
2022-08-17T12:16:09.994Z,61.37
2022-08-17T12:18:39.840Z,61.45
2022-08-17T12:21:20.916Z,61.49
2022-08-17T12:23:57.688Z,61.47
2022-08-17T12:26:30.395Z,61.12
2022-08-17T12:29:02.165Z,61.10
2022-08-17T12:31:34.805Z,60.73
2022-08-17T12:34:03.481Z,60.82
2022-08-17T12:36:34.500Z,60.03
2022-08-17T12:39:12.986Z,59.90
2022-08-17T12:41:45.097Z,59.94
2022-08-17T12:44:16.269Z,59.39
2022-08-17T12:46:51.322Z,58.46
2022-08-17T12:49:27.532Z,58.62
2022-08-17T12:52:04.213Z,58.26
2022-08-17T12:54:40.546Z,58.70
2022-08-17T12:57:14.005Z,58.20
2022-08-17T12:59:44.281Z,57.26
2022-08-17T13:02:22.143Z,57.17
2022-08-17T13:04:50.703Z,57.67
2022-08-17T13:07:35.283Z,57.30
2022-08-17T13:10:03.517Z,57.58
2022-08-17T13:12:34.361Z,57.69
2022-08-17T13:15:02.555Z,57.02
2022-08-17T13:17:34.623Z,56.59
2022-08-17T13:20:04.758Z,56.10
2022-08-17T13:22:34.152Z,56.04
2022-08-17T13:25:07.447Z,55.61
2022-08-17T13:27:35.316Z,55.19
2022-08-17T13:30:08.099Z,55.47
2022-08-17T13:32:43.773Z,55.07
2022-08-17T13:35:39.850Z,55.58
2022-08-17T13:38:12.366Z,56.05
2022-08-17T13:40:42.102Z,56.51
2022-08-17T13:43:10.773Z,57.01
2022-08-17T13:46:01.252Z,57.20
2022-08-17T13:48:30.294Z,57.71
2022-08-17T13:51:18.315Z,57.65
2022-08-17T13:53:55.867Z,57.18
2022-08-17T13:56:38.386Z,56.23
2022-08-17T13:59:11.110Z,56.53
2022-08-17T14:01:42.438Z,57.25
2022-08-17T14:04:11.898Z,57.52
2022-08-17T14:06:53.987Z,58.11
2022-08-17T14:09:27.405Z,57.60
2022-08-17T14:11:57.777Z,57.71
2022-08-17T14:14:26.831Z,57.90
2022-08-17T14:16:55.453Z,58.21
2022-08-17T14:19:23.589Z,58.18
2022-08-17T14:21:56.364Z,58.34
2022-08-17T14:24:28.972Z,58.30
2022-08-17T14:26:58.255Z,57.94
2022-08-17T14:29:29.377Z,58.27
2022-08-17T14:31:58.160Z,58.27
2022-08-17T14:34:26.814Z,58.08
2022-08-17T14:36:54.485Z,58.08
2022-08-17T14:39:22.344Z,58.40
2022-08-17T14:41:52.965Z,58.63
2022-08-17T14:44:20.728Z,58.72
2022-08-17T14:46:50.487Z,58.53
2022-08-17T14:49:20.671Z,58.64
2022-08-17T14:51:48.636Z,58.08
2022-08-17T14:54:33.135Z,57.58
2022-08-17T14:57:23.096Z,57.89
2022-08-17T14:59:54.572Z,57.70
2022-08-17T15:02:29.718Z,57.76
2022-08-17T15:05:00.651Z,57.49
2022-08-17T15:07:30.517Z,57.36
2022-08-17T15:09:58.888Z,57.16
2022-08-17T15:12:34.345Z,57.20
2022-08-17T15:15:04.674Z,57.07
2022-08-17T15:17:45.149Z,56.25
2022-08-17T15:20:15.755Z,56.58
2022-08-17T15:22:45.826Z,56.59
2022-08-17T15:25:15.252Z,56.63
2022-08-17T15:27:44.374Z,56.72
2022-08-17T15:30:13.111Z,56.27
2022-08-17T15:32:51.405Z,55.75
2022-08-17T15:35:26.904Z,55.83
2022-08-17T15:37:57.388Z,55.60
2022-08-17T15:40:25.194Z,55.28
2022-08-17T15:42:54.396Z,54.88
2022-08-17T15:45:26.613Z,55.77
2022-08-17T15:47:54.349Z,55.20
2022-08-17T15:50:22.375Z,55.32
2022-08-17T15:52:56.271Z,55.77
2022-08-17T15:55:24.423Z,55.09
2022-08-17T15:57:53.225Z,55.02
2022-08-17T16:00:23.929Z,54.79
2022-08-17T16:03:46.438Z,54.33
2022-08-17T16:05:40.689Z,54.95
2022-08-17T16:08:10.861Z,54.98
2022-08-17T16:10:38.957Z,56.00
2022-08-17T16:13:17.425Z,56.85
2022-08-17T16:15:56.863Z,57.78
2022-08-17T16:18:28.186Z,58.63
2022-08-17T16:20:56.001Z,58.94
2022-08-17T16:23:24.394Z,59.00
2022-08-17T16:25:53.858Z,58.55
2022-08-17T16:28:35.820Z,58.28
2022-08-17T16:31:05.848Z,58.20
2022-08-17T16:33:36.671Z,57.99
2022-08-17T16:36:05.044Z,58.19
2022-08-17T16:38:32.790Z,58.05
2022-08-17T16:41:00.723Z,58.34
2022-08-17T16:43:29.225Z,58.84
2022-08-17T16:45:57.090Z,59.23
2022-08-17T16:48:27.704Z,59.28
2022-08-17T16:51:02.966Z,59.33
2022-08-17T16:53:31.749Z,59.38
2022-08-17T16:55:59.410Z,59.37
2022-08-17T16:58:27.179Z,59.43
2022-08-17T17:00:59.454Z,59.25
2022-08-17T17:03:31.880Z,59.32
2022-08-17T17:06:08.089Z,59.55
2022-08-17T17:08:44.111Z,60.01
2022-08-17T17:11:17.644Z,60.29
2022-08-17T17:13:49.635Z,60.37
2022-08-17T17:16:19.388Z,60.71
2022-08-17T17:19:01.808Z,60.70
2022-08-17T17:21:36.318Z,60.60
2022-08-17T17:24:11.110Z,61.17
2022-08-17T17:26:55.151Z,61.14
2022-08-17T17:29:45.270Z,61.77
2022-08-17T17:32:20.957Z,62.08
2022-08-17T17:34:55.623Z,61.91
2022-08-17T17:37:28.415Z,61.73
2022-08-17T17:40:01.032Z,61.56
2022-08-17T17:42:32.304Z,61.30
2022-08-17T17:45:05.568Z,61.21
2022-08-17T17:47:34.430Z,60.34
2022-08-17T17:50:06.656Z,59.81
2022-08-17T17:52:40.943Z,59.06
2022-08-17T17:55:24.205Z,58.85
2022-08-17T17:58:01.918Z,59.21
2022-08-17T18:00:38.294Z,59.74
2022-08-17T18:03:24.360Z,59.90
2022-08-17T18:06:15.031Z,59.84
2022-08-17T18:08:58.989Z,59.83
2022-08-17T18:11:45.603Z,59.81
2022-08-17T18:14:29.913Z,59.09
2022-08-17T18:16:59.945Z,59.10
2022-08-17T18:19:29.817Z,59.05
2022-08-17T18:22:14.849Z,59.16
2022-08-17T18:24:45.606Z,59.07
2022-08-17T18:27:24.173Z,59.27
2022-08-17T18:29:53.868Z,59.23
2022-08-17T18:32:41.372Z,59.21
2022-08-17T18:35:32.632Z,59.44
2022-08-17T18:38:20.834Z,59.73
2022-08-17T18:40:59.770Z,60.08
2022-08-17T18:43:43.789Z,60.57
2022-08-17T18:46:29.446Z,60.96
2022-08-17T18:48:59.658Z,60.87
2022-08-17T18:51:41.492Z,61.14
2022-08-17T18:54:20.722Z,61.29
2022-08-17T18:56:54.609Z,61.27
2022-08-17T18:59:30.226Z,61.34
2022-08-17T19:02:16.069Z,61.53
2022-08-17T19:04:59.743Z,61.56
2022-08-17T19:07:31.325Z,62.39
2022-08-17T19:10:19.874Z,62.47
2022-08-17T19:12:52.770Z,62.66
2022-08-17T19:15:28.894Z,62.37
2022-08-17T19:18:01.735Z,63.02
2022-08-17T19:20:33.109Z,63.25
2022-08-17T19:23:11.159Z,63.32
2022-08-17T19:25:48.293Z,63.52
2022-08-17T19:28:22.998Z,64.16
2022-08-17T19:30:55.887Z,64.52
2022-08-17T19:33:23.891Z,64.23
2022-08-17T19:36:02.346Z,65.24
2022-08-17T19:38:41.281Z,65.25
2022-08-17T19:41:17.306Z,65.51
2022-08-17T19:43:59.323Z,66.02
2022-08-17T19:46:35.628Z,65.65
2022-08-17T19:49:11.715Z,65.76
2022-08-17T19:51:48.580Z,66.43
2022-08-17T19:54:27.031Z,66.78
2022-08-17T19:57:02.828Z,66.90
2022-08-17T19:59:49.041Z,67.20
2022-08-17T20:02:27.352Z,66.87
2022-08-17T20:05:00.210Z,67.26
2022-08-17T20:07:43.285Z,66.90
2022-08-17T20:10:39.179Z,67.50
2022-08-17T20:13:10.972Z,68.40
2022-08-17T20:15:42.862Z,68.24
2022-08-17T20:18:21.642Z,68.51
2022-08-17T20:20:58.066Z,69.04
2022-08-17T20:23:45.356Z,70.25
2022-08-17T20:26:20.519Z,69.88
2022-08-17T20:29:37.705Z,70.95
2022-08-17T20:32:29.670Z,70.49
2022-08-17T20:35:20.237Z,70.68
2022-08-17T20:37:58.349Z,70.75
2022-08-17T20:40:30.051Z,70.98
2022-08-17T20:42:59.345Z,70.84
2022-08-17T20:46:08.752Z,71.16
2022-08-17T20:48:41.103Z,71.06
2022-08-17T20:51:23.714Z,71.56
2022-08-17T20:53:59.301Z,71.84
2022-08-17T20:56:50.115Z,71.93
2022-08-17T20:59:55.192Z,72.00
2022-08-17T21:02:26.718Z,72.16
2022-08-17T21:05:30.274Z,72.35
2022-08-17T21:08:02.132Z,72.76
2022-08-17T21:10:38.466Z,73.03
2022-08-17T21:13:35.902Z,73.95
2022-08-17T21:16:11.219Z,73.90
2022-08-17T21:18:51.458Z,74.04
2022-08-17T21:21:27.037Z,74.41
2022-08-17T21:24:20.391Z,75.25
2022-08-17T21:26:58.142Z,74.85
2022-08-17T21:29:31.192Z,74.81
2022-08-17T21:32:23.738Z,74.83
2022-08-17T21:35:25.708Z,75.21
2022-08-17T21:38:04.354Z,75.92
2022-08-17T21:40:33.947Z,76.40
2022-08-17T21:43:17.935Z,76.13
2022-08-17T21:45:59.962Z,75.54
2022-08-17T21:48:30.876Z,75.71
2022-08-17T21:51:04.682Z,76.37
2022-08-17T21:53:40.988Z,76.73
2022-08-17T21:56:10.938Z,77.21
2022-08-17T21:58:40.982Z,77.31
2022-08-17T22:01:24.645Z,77.88
2022-08-17T22:03:59.077Z,78.34
2022-08-17T22:06:34.137Z,78.36
2022-08-17T22:09:07.431Z,78.39
2022-08-17T22:11:53.267Z,78.60
2022-08-17T22:14:22.936Z,78.95
2022-08-17T22:17:10.686Z,79.06
2022-08-17T22:19:39.449Z,78.72
2022-08-17T22:22:11.938Z,78.64
2022-08-17T22:24:38.766Z,78.77
2022-08-17T22:27:12.918Z,78.50
2022-08-17T22:30:00.977Z,78.64
2022-08-17T22:32:38.923Z,78.72
2022-08-17T22:35:29.205Z,79.09
2022-08-17T22:37:58.924Z,79.11
2022-08-17T22:40:30.435Z,79.22
2022-08-17T22:42:59.827Z,79.01
2022-08-17T22:45:29.780Z,79.21
2022-08-17T22:48:02.149Z,79.09
2022-08-17T22:50:33.227Z,79.36
2022-08-17T22:53:22.579Z,79.45
2022-08-17T22:56:11.967Z,79.34
2022-08-17T22:59:02.330Z,79.39
2022-08-17T23:01:32.508Z,79.38
2022-08-17T23:04:02.905Z,79.63
2022-08-17T23:06:33.691Z,79.72
2022-08-17T23:09:04.418Z,79.74
2022-08-17T23:11:48.827Z,79.67
2022-08-17T23:14:19.274Z,79.63
2022-08-17T23:16:47.126Z,79.65
2022-08-17T23:19:17.052Z,80.20
2022-08-17T23:21:45.721Z,80.11
2022-08-17T23:24:20.484Z,80.23
2022-08-17T23:26:48.266Z,80.27
2022-08-17T23:29:16.066Z,80.44
2022-08-17T23:31:44.018Z,80.29
2022-08-17T23:34:15.074Z,80.35
2022-08-17T23:36:49.805Z,80.47
2022-08-17T23:39:27.336Z,80.44
2022-08-17T23:41:58.189Z,80.74
2022-08-17T23:44:26.783Z,80.67
2022-08-17T23:46:55.518Z,80.74
2022-08-17T23:49:23.400Z,80.80
2022-08-17T23:51:53.605Z,80.67
2022-08-17T23:54:27.817Z,80.93
2022-08-17T23:56:55.579Z,80.91
2022-08-17T23:59:25.210Z,80.81
